sensor_id;sensor_type;location;lat;lon;timestamp;pressure;altitude;pressure_sealevel;temperature;humidity
70544;BME280;58097;48.364;-1.224;2023-08-07T00:00:12;100281.19;;;14.45;79.23
70544;BME280;58097;48.364;-1.224;2023-08-07T00:02:38;100284.47;;;14.41;79.34
70544;BME280;58097;48.364;-1.224;2023-08-07T00:05:04;100273.53;;;14.39;79.39
70544;BME280;58097;48.364;-1.224;2023-08-07T00:07:29;100278.41;;;14.37;79.41
70544;BME280;58097;48.364;-1.224;2023-08-07T00:09:55;100278.41;;;14.37;79.78
70544;BME280;58097;48.364;-1.224;2023-08-07T00:12:20;100280.13;;;14.38;79.91
70544;BME280;58097;48.364;-1.224;2023-08-07T00:14:48;100284.84;;;14.38;80.10
70544;BME280;58097;48.364;-1.224;2023-08-07T00:17:15;100290.75;;;14.35;79.96
70544;BME280;58097;48.364;-1.224;2023-08-07T00:19:41;100277.91;;;14.34;79.66
70544;BME280;58097;48.364;-1.224;2023-08-07T00:22:06;100280.84;;;14.32;79.48
70544;BME280;58097;48.364;-1.224;2023-08-07T00:24:31;100281.03;;;14.31;79.53
70544;BME280;58097;48.364;-1.224;2023-08-07T00:26:57;100273.72;;;14.30;80.47
70544;BME280;58097;48.364;-1.224;2023-08-07T00:29:22;100275.13;;;14.25;80.00
70544;BME280;58097;48.364;-1.224;2023-08-07T00:31:47;100270.97;;;14.21;80.61
70544;BME280;58097;48.364;-1.224;2023-08-07T00:34:13;100284.00;;;14.21;80.30
70544;BME280;58097;48.364;-1.224;2023-08-07T00:36:38;100272.38;;;14.17;80.68
70544;BME280;58097;48.364;-1.224;2023-08-07T00:39:03;100270.09;;;14.13;80.19
70544;BME280;58097;48.364;-1.224;2023-08-07T00:41:29;100281.03;;;14.14;79.91
70544;BME280;58097;48.364;-1.224;2023-08-07T00:43:54;100280.00;;;14.15;80.01
70544;BME280;58097;48.364;-1.224;2023-08-07T00:46:20;100286.41;;;14.16;80.21
70544;BME280;58097;48.364;-1.224;2023-08-07T00:48:45;100273.25;;;14.18;79.81
70544;BME280;58097;48.364;-1.224;2023-08-07T00:51:11;100273.25;;;14.18;79.89
70544;BME280;58097;48.364;-1.224;2023-08-07T00:53:38;100270.59;;;14.16;79.50
70544;BME280;58097;48.364;-1.224;2023-08-07T00:56:04;100267.84;;;14.16;79.75
70544;BME280;58097;48.364;-1.224;2023-08-07T00:58:31;100266.28;;;14.14;79.69
70544;BME280;58097;48.364;-1.224;2023-08-07T01:00:57;100261.75;;;14.13;79.26
70544;BME280;58097;48.364;-1.224;2023-08-07T01:03:23;100257.59;;;14.09;79.66
70544;BME280;58097;48.364;-1.224;2023-08-07T01:05:48;100257.94;;;14.06;79.64
70544;BME280;58097;48.364;-1.224;2023-08-07T01:08:14;100263.50;;;14.06;79.92
70544;BME280;58097;48.364;-1.224;2023-08-07T01:13:37;100253.63;;;14.03;80.06
70544;BME280;58097;48.364;-1.224;2023-08-07T01:16:10;100245.97;;;14.05;79.99
70544;BME280;58097;48.364;-1.224;2023-08-07T01:18:38;100242.16;;;14.06;80.14
70544;BME280;58097;48.364;-1.224;2023-08-07T01:21:04;100247.88;;;14.05;79.86
70544;BME280;58097;48.364;-1.224;2023-08-07T01:23:29;100255.34;;;14.04;80.12
70544;BME280;58097;48.364;-1.224;2023-08-07T01:25:55;100249.78;;;14.04;80.19
70544;BME280;58097;48.364;-1.224;2023-08-07T01:28:28;100255.19;;;14.06;80.54
70544;BME280;58097;48.364;-1.224;2023-08-07T01:30:59;100258.66;;;14.08;81.02
70544;BME280;58097;48.364;-1.224;2023-08-07T01:33:43;100253.78;;;14.10;81.52
70544;BME280;58097;48.364;-1.224;2023-08-07T01:36:11;100259.16;;;14.11;81.50
70544;BME280;58097;48.364;-1.224;2023-08-07T01:38:37;100268.72;;;14.17;81.19
70544;BME280;58097;48.364;-1.224;2023-08-07T01:41:03;100262.81;;;14.20;81.54
70544;BME280;58097;48.364;-1.224;2023-08-07T01:43:29;100267.16;;;14.22;81.66
70544;BME280;58097;48.364;-1.224;2023-08-07T01:45:56;100266.63;;;14.27;81.12
70544;BME280;58097;48.364;-1.224;2023-08-07T01:48:22;100267.13;;;14.31;81.25
70544;BME280;58097;48.364;-1.224;2023-08-07T01:50:47;100271.66;;;14.32;81.84
70544;BME280;58097;48.364;-1.224;2023-08-07T01:53:13;100259.28;;;14.34;81.80
70544;BME280;58097;48.364;-1.224;2023-08-07T01:55:38;100265.91;;;14.33;81.90
70544;BME280;58097;48.364;-1.224;2023-08-07T01:58:03;100268.00;;;14.31;82.03
70544;BME280;58097;48.364;-1.224;2023-08-07T02:00:29;100256.88;;;14.31;81.73
70544;BME280;58097;48.364;-1.224;2023-08-07T02:02:54;100254.28;;;14.30;81.41
70544;BME280;58097;48.364;-1.224;2023-08-07T02:05:19;100262.78;;;14.28;81.91
70544;BME280;58097;48.364;-1.224;2023-08-07T02:07:45;100254.44;;;14.28;82.19
70544;BME280;58097;48.364;-1.224;2023-08-07T02:10:10;100261.41;;;14.24;81.57
70544;BME280;58097;48.364;-1.224;2023-08-07T02:12:35;100257.06;;;14.21;82.85
70544;BME280;58097;48.364;-1.224;2023-08-07T02:15:01;100258.31;;;14.19;82.21
70544;BME280;58097;48.364;-1.224;2023-08-07T02:17:27;100256.56;;;14.18;82.26
70544;BME280;58097;48.364;-1.224;2023-08-07T02:19:55;100260.41;;;14.17;82.32
70544;BME280;58097;48.364;-1.224;2023-08-07T02:22:20;100260.22;;;14.18;82.55
70544;BME280;58097;48.364;-1.224;2023-08-07T02:24:46;100259.00;;;14.21;82.74
70544;BME280;58097;48.364;-1.224;2023-08-07T02:27:11;100265.94;;;14.25;83.24
70544;BME280;58097;48.364;-1.224;2023-08-07T02:29:36;100265.94;;;14.25;82.77
70544;BME280;58097;48.364;-1.224;2023-08-07T02:32:02;100270.44;;;14.26;82.82
70544;BME280;58097;48.364;-1.224;2023-08-07T02:34:31;100273.41;;;14.24;83.36
70544;BME280;58097;48.364;-1.224;2023-08-07T02:36:56;100270.63;;;14.24;83.17
70544;BME280;58097;48.364;-1.224;2023-08-07T02:39:22;100265.75;;;14.26;83.57
70544;BME280;58097;48.364;-1.224;2023-08-07T02:41:47;100262.09;;;14.26;83.05
70544;BME280;58097;48.364;-1.224;2023-08-07T02:44:12;100255.69;;;14.25;82.70
70544;BME280;58097;48.364;-1.224;2023-08-07T02:46:38;100253.75;;;14.26;82.96
70544;BME280;58097;48.364;-1.224;2023-08-07T02:49:03;100250.97;;;14.26;83.27
70544;BME280;58097;48.364;-1.224;2023-08-07T02:51:30;100255.84;;;14.24;82.94
70544;BME280;58097;48.364;-1.224;2023-08-07T02:53:55;100264.38;;;14.22;82.97
70544;BME280;58097;48.364;-1.224;2023-08-07T02:56:20;100258.81;;;14.22;83.20
70544;BME280;58097;48.364;-1.224;2023-08-07T02:58:46;100243.00;;;14.23;83.21
70544;BME280;58097;48.364;-1.224;2023-08-07T03:01:11;100247.69;;;14.22;83.40
70544;BME280;58097;48.364;-1.224;2023-08-07T03:03:37;100253.06;;;14.24;83.11
70544;BME280;58097;48.364;-1.224;2023-08-07T03:06:03;100252.38;;;14.22;83.52
70544;BME280;58097;48.364;-1.224;2023-08-07T03:08:28;100257.44;;;14.18;83.35
70544;BME280;58097;48.364;-1.224;2023-08-07T03:10:56;100261.94;;;14.19;83.77
70544;BME280;58097;48.364;-1.224;2023-08-07T03:13:23;100253.59;;;14.19;83.81
70544;BME280;58097;48.364;-1.224;2023-08-07T03:15:49;100252.91;;;14.17;84.01
70544;BME280;58097;48.364;-1.224;2023-08-07T03:18:16;100251.00;;;14.18;83.83
70544;BME280;58097;48.364;-1.224;2023-08-07T03:20:42;100246.31;;;14.18;83.79
70544;BME280;58097;48.364;-1.224;2023-08-07T03:23:09;100254.28;;;14.21;83.75
70544;BME280;58097;48.364;-1.224;2023-08-07T03:25:34;100246.81;;;14.22;83.61
70544;BME280;58097;48.364;-1.224;2023-08-07T03:28:00;100245.97;;;14.21;83.82
70544;BME280;58097;48.364;-1.224;2023-08-07T03:30:25;100247.00;;;14.20;83.71
70544;BME280;58097;48.364;-1.224;2023-08-07T03:32:50;100240.56;;;14.20;83.82
70544;BME280;58097;48.364;-1.224;2023-08-07T03:35:16;100245.44;;;14.18;83.09
70544;BME280;58097;48.364;-1.224;2023-08-07T03:37:41;100250.47;;;14.14;83.27
70544;BME280;58097;48.364;-1.224;2023-08-07T03:40:07;100247.16;;;14.11;83.44
70544;BME280;58097;48.364;-1.224;2023-08-07T03:42:32;100237.28;;;14.08;83.18
70544;BME280;58097;48.364;-1.224;2023-08-07T03:44:58;100237.47;;;14.07;83.39
70544;BME280;58097;48.364;-1.224;2023-08-07T03:47:23;100228.25;;;14.06;83.60
70544;BME280;58097;48.364;-1.224;2023-08-07T03:49:49;100237.63;;;14.05;83.37
70544;BME280;58097;48.364;-1.224;2023-08-07T03:52:14;100235.03;;;14.04;83.45
70544;BME280;58097;48.364;-1.224;2023-08-07T03:54:40;100240.94;;;14.01;83.30
70544;BME280;58097;48.364;-1.224;2023-08-07T03:57:05;100237.66;;;13.97;83.42
70544;BME280;58097;48.364;-1.224;2023-08-07T03:59:31;100239.06;;;13.93;82.99
70544;BME280;58097;48.364;-1.224;2023-08-07T04:01:56;100234.03;;;13.88;82.80
70544;BME280;58097;48.364;-1.224;2023-08-07T04:04:21;100231.38;;;13.87;82.96
70544;BME280;58097;48.364;-1.224;2023-08-07T04:06:47;100239.03;;;13.85;83.19
70544;BME280;58097;48.364;-1.224;2023-08-07T04:09:12;100242.84;;;13.84;83.01
70544;BME280;58097;48.364;-1.224;2023-08-07T04:11:37;100249.81;;;13.80;83.00
70544;BME280;58097;48.364;-1.224;2023-08-07T04:14:03;100243.72;;;13.76;82.86
70544;BME280;58097;48.364;-1.224;2023-08-07T04:16:30;100252.59;;;13.72;82.84
70544;BME280;58097;48.364;-1.224;2023-08-07T04:18:56;100251.03;;;13.69;82.71
70544;BME280;58097;48.364;-1.224;2023-08-07T04:21:22;100246.34;;;13.70;82.82
70544;BME280;58097;48.364;-1.224;2023-08-07T04:23:47;100237.66;;;13.64;82.95
70544;BME280;58097;48.364;-1.224;2023-08-07T04:26:12;100242.19;;;13.66;82.81
70544;BME280;58097;48.364;-1.224;2023-08-07T04:28:39;100245.31;;;13.62;83.08
70544;BME280;58097;48.364;-1.224;2023-08-07T04:31:04;100243.03;;;13.58;83.05
70544;BME280;58097;48.364;-1.224;2023-08-07T04:33:30;100247.88;;;13.56;83.45
70544;BME280;58097;48.364;-1.224;2023-08-07T04:35:55;100244.41;;;13.54;83.62
70544;BME280;58097;48.364;-1.224;2023-08-07T04:38:21;100239.19;;;13.51;83.39
70544;BME280;58097;48.364;-1.224;2023-08-07T04:40:48;100243.88;;;13.50;83.66
70544;BME280;58097;48.364;-1.224;2023-08-07T04:43:17;100247.88;;;13.48;83.42
70544;BME280;58097;48.364;-1.224;2023-08-07T04:45:44;100246.31;;;13.45;83.55
70544;BME280;58097;48.364;-1.224;2023-08-07T04:48:12;100247.53;;;13.43;83.34
70544;BME280;58097;48.364;-1.224;2023-08-07T04:50:38;100252.22;;;13.42;83.57
70544;BME280;58097;48.364;-1.224;2023-08-07T04:53:07;100251.00;;;13.45;83.63
70544;BME280;58097;48.364;-1.224;2023-08-07T04:55:32;100246.84;;;13.41;83.79
70544;BME280;58097;48.364;-1.224;2023-08-07T04:57:58;100254.66;;;13.37;83.40
70544;BME280;58097;48.364;-1.224;2023-08-07T05:00:24;100261.41;;;13.35;83.63
70544;BME280;58097;48.364;-1.224;2023-08-07T05:02:49;100262.44;;;13.33;83.49
70544;BME280;58097;48.364;-1.224;2023-08-07T05:05:15;100262.44;;;13.33;83.80
70544;BME280;58097;48.364;-1.224;2023-08-07T05:07:41;100261.59;;;13.33;83.76
70544;BME280;58097;48.364;-1.224;2023-08-07T05:10:07;100255.16;;;13.32;83.99
70544;BME280;58097;48.364;-1.224;2023-08-07T05:12:32;100263.31;;;13.34;83.77
70544;BME280;58097;48.364;-1.224;2023-08-07T05:14:58;100270.59;;;13.35;83.96
70544;BME280;58097;48.364;-1.224;2023-08-07T05:17:23;100267.66;;;13.37;84.15
70544;BME280;58097;48.364;-1.224;2023-08-07T05:19:48;100261.25;;;13.36;84.42
70544;BME280;58097;48.364;-1.224;2023-08-07T05:22:15;100270.25;;;13.38;84.29
70544;BME280;58097;48.364;-1.224;2023-08-07T05:24:40;100265.56;;;13.39;84.23
70544;BME280;58097;48.364;-1.224;2023-08-07T05:27:08;100265.75;;;13.37;84.10
70544;BME280;58097;48.364;-1.224;2023-08-07T05:29:36;100266.78;;;13.36;84.33
70544;BME280;58097;48.364;-1.224;2023-08-07T05:32:12;100269.41;;;13.38;84.37
70544;BME280;58097;48.364;-1.224;2023-08-07T05:34:37;100272.88;;;13.40;84.50
70544;BME280;58097;48.364;-1.224;2023-08-07T05:37:03;100283.63;;;13.43;84.90
70544;BME280;58097;48.364;-1.224;2023-08-07T05:39:28;100281.53;;;13.45;84.93
70544;BME280;58097;48.364;-1.224;2023-08-07T05:41:54;100270.97;;;13.48;85.03
70544;BME280;58097;48.364;-1.224;2023-08-07T05:44:22;100271.31;;;13.53;85.19
70544;BME280;58097;48.364;-1.224;2023-08-07T05:46:48;100269.22;;;13.55;85.11
70544;BME280;58097;48.364;-1.224;2023-08-07T05:49:13;100269.91;;;13.57;85.27
70544;BME280;58097;48.364;-1.224;2023-08-07T05:51:38;100264.91;;;13.61;85.68
70544;BME280;58097;48.364;-1.224;2023-08-07T05:54:04;100264.56;;;13.64;85.48
70544;BME280;58097;48.364;-1.224;2023-08-07T05:56:29;100271.50;;;13.68;85.61
70544;BME280;58097;48.364;-1.224;2023-08-07T05:58:54;100267.69;;;13.69;85.91
70544;BME280;58097;48.364;-1.224;2023-08-07T06:01:20;100274.13;;;13.70;85.80
70544;BME280;58097;48.364;-1.224;2023-08-07T06:03:45;100271.84;;;13.73;85.97
70544;BME280;58097;48.364;-1.224;2023-08-07T06:06:12;100277.41;;;13.73;85.97
70544;BME280;58097;48.364;-1.224;2023-08-07T06:08:37;100279.50;;;13.79;86.11
70544;BME280;58097;48.364;-1.224;2023-08-07T06:11:03;100285.38;;;13.84;86.01
70544;BME280;58097;48.364;-1.224;2023-08-07T06:13:30;100291.31;;;13.89;86.43
70544;BME280;58097;48.364;-1.224;2023-08-07T06:15:55;100282.97;;;13.98;86.20
70544;BME280;58097;48.364;-1.224;2023-08-07T06:18:21;100285.75;;;14.06;86.29
70544;BME280;58097;48.364;-1.224;2023-08-07T06:20:46;100285.03;;;14.12;87.08
70544;BME280;58097;48.364;-1.224;2023-08-07T06:23:12;100291.97;;;14.16;87.41
70544;BME280;58097;48.364;-1.224;2023-08-07T06:25:38;100290.44;;;14.21;86.71
70544;BME280;58097;48.364;-1.224;2023-08-07T06:28:03;100299.97;;;14.27;87.30
70544;BME280;58097;48.364;-1.224;2023-08-07T06:30:30;100294.56;;;14.34;86.76
70544;BME280;58097;48.364;-1.224;2023-08-07T06:32:56;100291.09;;;14.40;87.02
70544;BME280;58097;48.364;-1.224;2023-08-07T06:35:21;100296.84;;;14.54;87.60
70544;BME280;58097;48.364;-1.224;2023-08-07T06:37:46;100296.09;;;14.69;87.75
70544;BME280;58097;48.364;-1.224;2023-08-07T06:40:12;100299.31;;;14.88;87.76
70544;BME280;58097;48.364;-1.224;2023-08-07T06:42:37;100293.47;;;15.14;88.52
70544;BME280;58097;48.364;-1.224;2023-08-07T06:45:03;100311.13;;;15.38;88.06
70544;BME280;58097;48.364;-1.224;2023-08-07T06:47:28;100307.84;;;15.65;88.14
70544;BME280;58097;48.364;-1.224;2023-08-07T06:49:53;100309.94;;;15.86;87.78
70544;BME280;58097;48.364;-1.224;2023-08-07T06:52:19;100314.66;;;16.08;87.27
70544;BME280;58097;48.364;-1.224;2023-08-07T06:54:44;100297.97;;;16.23;86.94
70544;BME280;58097;48.364;-1.224;2023-08-07T06:57:09;100307.91;;;16.40;86.55
70544;BME280;58097;48.364;-1.224;2023-08-07T06:59:35;100314.00;;;16.59;86.44
70544;BME280;58097;48.364;-1.224;2023-08-07T07:02:00;100317.34;;;16.77;86.32
70544;BME280;58097;48.364;-1.224;2023-08-07T07:04:25;100311.94;;;16.90;86.09
70544;BME280;58097;48.364;-1.224;2023-08-07T07:06:51;100318.94;;;17.01;85.87
70544;BME280;58097;48.364;-1.224;2023-08-07T07:09:16;100318.75;;;17.17;85.90
70544;BME280;58097;48.364;-1.224;2023-08-07T07:11:43;100322.19;;;17.34;85.29
70544;BME280;58097;48.364;-1.224;2023-08-07T07:14:09;100324.09;;;17.48;84.87
70544;BME280;58097;48.364;-1.224;2023-08-07T07:16:35;100333.03;;;17.58;85.13
70544;BME280;58097;48.364;-1.224;2023-08-07T07:19:01;100331.03;;;17.67;84.50
70544;BME280;58097;48.364;-1.224;2023-08-07T07:21:26;100322.25;;;17.70;84.21
70544;BME280;58097;48.364;-1.224;2023-08-07T07:23:51;100324.97;;;17.85;83.75
70544;BME280;58097;48.364;-1.224;2023-08-07T07:26:17;100332.56;;;17.91;83.29
70544;BME280;58097;48.364;-1.224;2023-08-07T07:28:42;100325.81;;;18.00;82.80
70544;BME280;58097;48.364;-1.224;2023-08-07T07:31:08;100336.84;;;18.08;82.53
70544;BME280;58097;48.364;-1.224;2023-08-07T07:33:36;100332.19;;;18.15;82.89
70544;BME280;58097;48.364;-1.224;2023-08-07T07:36:02;100327.13;;;18.25;82.98
70544;BME280;58097;48.364;-1.224;2023-08-07T07:38:28;100333.91;;;18.38;82.82
70544;BME280;58097;48.364;-1.224;2023-08-07T07:40:53;100334.91;;;18.51;82.41
70544;BME280;58097;48.364;-1.224;2023-08-07T07:43:22;100340.13;;;18.61;82.71
70544;BME280;58097;48.364;-1.224;2023-08-07T07:45:47;100335.69;;;18.67;81.42
70544;BME280;58097;48.364;-1.224;2023-08-07T07:48:13;100336.38;;;18.75;80.58
70544;BME280;58097;48.364;-1.224;2023-08-07T07:50:39;100333.88;;;18.80;81.82
70544;BME280;58097;48.364;-1.224;2023-08-07T07:53:04;100330.25;;;18.86;81.30
70544;BME280;58097;48.364;-1.224;2023-08-07T07:55:31;100336.75;;;18.94;80.61
70544;BME280;58097;48.364;-1.224;2023-08-07T07:57:57;100341.75;;;19.05;81.43
70544;BME280;58097;48.364;-1.224;2023-08-07T08:00:22;100332.13;;;19.14;80.93
70544;BME280;58097;48.364;-1.224;2023-08-07T08:02:52;100334.94;;;19.14;79.48
70544;BME280;58097;48.364;-1.224;2023-08-07T08:05:18;100333.78;;;19.02;78.46
70544;BME280;58097;48.364;-1.224;2023-08-07T08:07:43;100335.25;;;18.98;79.58
70544;BME280;58097;48.364;-1.224;2023-08-07T08:10:09;100334.28;;;19.12;81.04
70544;BME280;58097;48.364;-1.224;2023-08-07T08:12:35;100334.97;;;19.21;80.01
70544;BME280;58097;48.364;-1.224;2023-08-07T08:15:02;100347.97;;;19.35;79.92
70544;BME280;58097;48.364;-1.224;2023-08-07T08:17:28;100344.16;;;19.42;79.73
70544;BME280;58097;48.364;-1.224;2023-08-07T08:19:54;100341.34;;;19.42;78.16
70544;BME280;58097;48.364;-1.224;2023-08-07T08:22:19;100345.06;;;19.15;75.33
70544;BME280;58097;48.364;-1.224;2023-08-07T08:24:44;100350.69;;;19.15;76.78
70544;BME280;58097;48.364;-1.224;2023-08-07T08:27:10;100345.44;;;19.05;76.81
70544;BME280;58097;48.364;-1.224;2023-08-07T08:29:35;100337.88;;;19.06;77.30
70544;BME280;58097;48.364;-1.224;2023-08-07T08:32:00;100340.38;;;18.87;73.80
70544;BME280;58097;48.364;-1.224;2023-08-07T08:34:27;100333.03;;;18.86;76.64
70544;BME280;58097;48.364;-1.224;2023-08-07T08:36:52;100339.38;;;19.02;76.73
70544;BME280;58097;48.364;-1.224;2023-08-07T08:39:18;100340.31;;;19.09;76.47
70544;BME280;58097;48.364;-1.224;2023-08-07T08:41:46;100337.53;;;19.15;76.91
70544;BME280;58097;48.364;-1.224;2023-08-07T08:44:13;100336.47;;;19.16;76.03
70544;BME280;58097;48.364;-1.224;2023-08-07T08:46:41;100328.50;;;19.20;76.48
70544;BME280;58097;48.364;-1.224;2023-08-07T08:49:08;100335.66;;;19.29;76.35
70544;BME280;58097;48.364;-1.224;2023-08-07T08:51:35;100338.22;;;19.24;74.69
70544;BME280;58097;48.364;-1.224;2023-08-07T08:54:01;100337.28;;;19.10;73.32
70544;BME280;58097;48.364;-1.224;2023-08-07T08:56:29;100340.34;;;19.15;74.80
70544;BME280;58097;48.364;-1.224;2023-08-07T08:58:55;100336.31;;;19.31;76.29
70544;BME280;58097;48.364;-1.224;2023-08-07T09:01:21;100336.38;;;19.44;74.91
70544;BME280;58097;48.364;-1.224;2023-08-07T09:03:47;100338.44;;;19.64;74.78
70544;BME280;58097;48.364;-1.224;2023-08-07T09:06:13;100336.75;;;19.76;73.97
70544;BME280;58097;48.364;-1.224;2023-08-07T09:08:41;100340.69;;;19.95;74.67
70544;BME280;58097;48.364;-1.224;2023-08-07T09:11:08;100339.00;;;20.14;72.56
70544;BME280;58097;48.364;-1.224;2023-08-07T09:13:36;100338.56;;;20.17;72.40
70544;BME280;58097;48.364;-1.224;2023-08-07T09:16:02;100322.19;;;20.33;73.26
70544;BME280;58097;48.364;-1.224;2023-08-07T09:18:28;100339.53;;;20.57;72.29
70544;BME280;58097;48.364;-1.224;2023-08-07T09:20:53;100344.25;;;20.50;71.38
70544;BME280;58097;48.364;-1.224;2023-08-07T09:23:19;100341.84;;;20.33;69.86
70544;BME280;58097;48.364;-1.224;2023-08-07T09:25:45;100345.94;;;20.37;72.26
70544;BME280;58097;48.364;-1.224;2023-08-07T09:28:11;100339.09;;;20.53;70.93
70544;BME280;58097;48.364;-1.224;2023-08-07T09:30:37;100340.81;;;20.54;72.75
70544;BME280;58097;48.364;-1.224;2023-08-07T09:33:03;100337.34;;;20.46;70.49
70544;BME280;58097;48.364;-1.224;2023-08-07T09:35:30;100337.16;;;20.54;69.61
70544;BME280;58097;48.364;-1.224;2023-08-07T09:37:59;100339.72;;;20.62;69.60
70544;BME280;58097;48.364;-1.224;2023-08-07T09:40:25;100343.63;;;20.67;68.87
70544;BME280;58097;48.364;-1.224;2023-08-07T09:42:51;100339.25;;;20.32;66.66
70544;BME280;58097;48.364;-1.224;2023-08-07T09:45:25;100341.66;;;20.48;66.72
70544;BME280;58097;48.364;-1.224;2023-08-07T09:48:02;100339.94;;;20.47;68.38
70544;BME280;58097;48.364;-1.224;2023-08-07T09:50:28;100345.34;;;20.68;66.96
70544;BME280;58097;48.364;-1.224;2023-08-07T09:52:54;100339.72;;;20.88;66.64
70544;BME280;58097;48.364;-1.224;2023-08-07T09:55:23;100337.31;;;21.12;68.18
70544;BME280;58097;48.364;-1.224;2023-08-07T09:57:49;100343.34;;;21.28;66.71
70544;BME280;58097;48.364;-1.224;2023-08-07T10:00:16;100339.84;;;21.33;65.80
70544;BME280;58097;48.364;-1.224;2023-08-07T10:02:42;100340.72;;;21.33;68.36
70544;BME280;58097;48.364;-1.224;2023-08-07T10:05:09;100333.97;;;21.48;68.70
70544;BME280;58097;48.364;-1.224;2023-08-07T10:07:36;100332.38;;;21.65;65.40
70544;BME280;58097;48.364;-1.224;2023-08-07T10:10:02;100336.03;;;21.72;64.27
70544;BME280;58097;48.364;-1.224;2023-08-07T10:12:28;100328.78;;;21.89;65.44
70544;BME280;58097;48.364;-1.224;2023-08-07T10:14:54;100332.22;;;21.98;66.97
70544;BME280;58097;48.364;-1.224;2023-08-07T10:17:23;100325.22;;;22.14;64.84
70544;BME280;58097;48.364;-1.224;2023-08-07T10:19:50;100329.00;;;22.26;65.61
70544;BME280;58097;48.364;-1.224;2023-08-07T10:22:16;100336.47;;;22.14;64.39
70544;BME280;58097;48.364;-1.224;2023-08-07T10:24:42;100338.72;;;21.92;65.90
70544;BME280;58097;48.364;-1.224;2023-08-07T10:27:11;100333.44;;;21.71;66.15
70544;BME280;58097;48.364;-1.224;2023-08-07T10:29:38;100320.81;;;21.35;60.54
70544;BME280;58097;48.364;-1.224;2023-08-07T10:32:06;100310.03;;;21.19;64.57
70544;BME280;58097;48.364;-1.224;2023-08-07T10:34:36;100327.28;;;21.42;66.11
70544;BME280;58097;48.364;-1.224;2023-08-07T10:37:06;100323.84;;;21.40;60.70
70544;BME280;58097;48.364;-1.224;2023-08-07T10:39:31;100326.25;;;21.17;61.17
70544;BME280;58097;48.364;-1.224;2023-08-07T10:41:57;100325.41;;;21.16;61.60
70544;BME280;58097;48.364;-1.224;2023-08-07T10:44:25;100312.69;;;20.94;58.15
70544;BME280;58097;48.364;-1.224;2023-08-07T10:46:55;100312.00;;;21.18;63.55
70544;BME280;58097;48.364;-1.224;2023-08-07T10:49:34;100317.31;;;21.46;61.62
70544;BME280;58097;48.364;-1.224;2023-08-07T10:52:12;100319.75;;;21.23;59.06
70544;BME280;58097;48.364;-1.224;2023-08-07T10:54:45;100321.47;;;21.30;62.70
70544;BME280;58097;48.364;-1.224;2023-08-07T10:57:12;100320.66;;;21.23;61.31
70544;BME280;58097;48.364;-1.224;2023-08-07T10:59:43;100319.09;;;21.41;63.18
70544;BME280;58097;48.364;-1.224;2023-08-07T11:02:11;100311.63;;;21.59;63.23
70544;BME280;58097;48.364;-1.224;2023-08-07T11:04:38;100315.63;;;21.83;62.11
70544;BME280;58097;48.364;-1.224;2023-08-07T11:07:03;100314.03;;;22.01;61.94
70544;BME280;58097;48.364;-1.224;2023-08-07T11:09:29;100313.09;;;22.13;61.49
70544;BME280;58097;48.364;-1.224;2023-08-07T11:11:54;100319.44;;;22.02;59.68
70544;BME280;58097;48.364;-1.224;2023-08-07T11:14:20;100317.53;;;21.89;62.67
70544;BME280;58097;48.364;-1.224;2023-08-07T11:16:47;100323.25;;;21.76;60.79
70544;BME280;58097;48.364;-1.224;2023-08-07T11:19:17;100321.19;;;21.52;58.98
70544;BME280;58097;48.364;-1.224;2023-08-07T11:23:25;100317.56;;;21.38;57.94
70544;BME280;58097;48.364;-1.224;2023-08-07T11:25:51;100315.59;;;21.39;56.78
70544;BME280;58097;48.364;-1.224;2023-08-07T11:28:21;100315.16;;;21.48;57.36
70544;BME280;58097;48.364;-1.224;2023-08-07T11:30:51;100319.56;;;21.76;60.68
70544;BME280;58097;48.364;-1.224;2023-08-07T11:33:18;100314.66;;;21.96;60.56
70544;BME280;58097;48.364;-1.224;2023-08-07T11:35:44;100313.94;;;22.14;61.08
70544;BME280;58097;48.364;-1.224;2023-08-07T11:38:10;100316.50;;;22.22;61.96
70544;BME280;58097;48.364;-1.224;2023-08-07T11:40:35;100318.44;;;22.21;59.24
70544;BME280;58097;48.364;-1.224;2023-08-07T11:43:01;100308.88;;;22.29;60.11
70544;BME280;58097;48.364;-1.224;2023-08-07T11:45:26;100308.25;;;22.27;58.32
70544;BME280;58097;48.364;-1.224;2023-08-07T11:47:52;100310.84;;;22.29;59.16
70544;BME280;58097;48.364;-1.224;2023-08-07T11:50:21;100303.88;;;22.31;57.26
70544;BME280;58097;48.364;-1.224;2023-08-07T11:52:46;100305.78;;;22.37;58.77
70544;BME280;58097;48.364;-1.224;2023-08-07T11:55:14;100304.78;;;22.50;59.22
70544;BME280;58097;48.364;-1.224;2023-08-07T11:57:39;100308.22;;;22.59;59.25
70544;BME280;58097;48.364;-1.224;2023-08-07T12:00:08;100309.94;;;22.60;58.73
70544;BME280;58097;48.364;-1.224;2023-08-07T12:02:43;100307.22;;;22.46;59.35
70544;BME280;58097;48.364;-1.224;2023-08-07T12:05:10;100305.09;;;22.42;59.59
70544;BME280;58097;48.364;-1.224;2023-08-07T12:07:38;100303.13;;;22.42;59.38
70544;BME280;58097;48.364;-1.224;2023-08-07T12:10:08;100295.66;;;22.54;59.33
70544;BME280;58097;48.364;-1.224;2023-08-07T12:12:38;100288.53;;;22.52;59.16
70544;BME280;58097;48.364;-1.224;2023-08-07T12:15:09;100302.09;;;22.37;60.46
70544;BME280;58097;48.364;-1.224;2023-08-07T12:17:37;100296.53;;;22.30;59.85
70544;BME280;58097;48.364;-1.224;2023-08-07T12:20:07;100297.72;;;22.41;60.96
70544;BME280;58097;48.364;-1.224;2023-08-07T12:22:37;100292.41;;;22.26;57.14
70544;BME280;58097;48.364;-1.224;2023-08-07T12:25:02;100291.25;;;22.09;58.99
70544;BME280;58097;48.364;-1.224;2023-08-07T12:27:28;100280.09;;;22.27;60.63
70544;BME280;58097;48.364;-1.224;2023-08-07T12:29:53;100282.91;;;22.27;60.05
70544;BME280;58097;48.364;-1.224;2023-08-07T12:32:18;100275.59;;;22.44;59.62
70544;BME280;58097;48.364;-1.224;2023-08-07T12:34:44;100270.75;;;22.51;59.79
70544;BME280;58097;48.364;-1.224;2023-08-07T12:37:09;100280.66;;;22.61;59.96
70544;BME280;58097;48.364;-1.224;2023-08-07T12:39:34;100292.09;;;22.66;59.37